»·PEaware :: N1399 KSAN-KPSP

N1399 :: KSAN-KPSP

FLIGHT INFORMATION

Flight Status: Arrived
Operator: Privately registered:
United States
More flights under this callsign
Pilot: David C. (16084)
Aircraft: SOCATA TBM-900
(TBM9)
More flights by this aircraft type
Origin: KSAN San Diego Intl-Lindbergh
United States
Destination: KPSP Palm Springs Intl
United States
More flights between these airports :: More routes between these airports
Route: +BRDR7 JLI V208 TRM
File this flight plan on PilotEdge
Remarks:
Altitude:
(Current/Filed)
15,000ft
Speed:
(Current/Filed)
285kts
Departed: 06-Jan-20 11:36 AM
Arrived: 06-Jan-20 12:11 PM
Distance/Time
Traveled:
74nm/0:35
Distance/Time
To Go:
Arrived

Flight Plot

Page will automatically refresh every two minutes.


Map Options




Map Legend


Flown Route
Filed Route
Departure Airport
Arrival Airport
Navaid (VOR, NDB)
Fix

Horizontal Profiles

Position Reports

Time Latitude Longitude Heading Altitude Ground
Speed
06-Jan-20 11:18 32.732231 -117.177216 193 20ft 0kts
06-Jan-20 11:19 32.732231 -117.177216 193 20ft 0kts
06-Jan-20 11:20 32.732231 -117.177216 193 20ft 0kts
06-Jan-20 11:21 32.732231 -117.177216 193 20ft 0kts
06-Jan-20 11:22 32.732231 -117.177216 193 20ft 0kts
06-Jan-20 11:23 32.732231 -117.177216 193 20ft 0kts
06-Jan-20 11:24 32.732231 -117.177216 193 20ft 0kts
06-Jan-20 11:25 32.732231 -117.177216 193 20ft 0kts
06-Jan-20 11:26 32.732231 -117.177216 193 20ft 0kts
06-Jan-20 11:27 32.732231 -117.177216 193 20ft 0kts
06-Jan-20 11:28 32.732231 -117.177216 193 20ft 0kts
06-Jan-20 11:29 32.732231 -117.177216 193 20ft 0kts
06-Jan-20 11:30 32.732231 -117.177216 193 20ft 0kts
06-Jan-20 11:31 32.731851 -117.177327 187 20ft 6kts
06-Jan-20 11:32 32.730953 -117.175515 136 20ft 0kts
06-Jan-20 11:33 32.730953 -117.175515 136 20ft 0kts
06-Jan-20 11:34 32.729984 -117.175655 296 20ft 10kts
06-Jan-20 11:35 32.738182 -117.200432 293 1045ft 133kts
06-Jan-20 11:36 32.750015 -117.246467 289 3158ft 156kts
06-Jan-20 11:37 32.749498 -117.294713 205 5175ft 176kts
06-Jan-20 11:38 32.703881 -117.274216 111 6959ft 197kts
06-Jan-20 11:39 32.724564 -117.220825 106 6837ft 192kts
06-Jan-20 11:40 32.708039 -117.166898 111 8729ft 167kts
06-Jan-20 11:41 32.688864 -117.117666 111 10378ft 161kts
06-Jan-20 11:42 32.668878 -117.070078 113 11965ft 174kts
06-Jan-20 11:43 32.645437 -117.016132 116 14060ft 190kts
06-Jan-20 11:44 32.615999 -116.959261 89 14999ft 231kts
06-Jan-20 11:45 32.620681 -116.877397 80 14968ft 260kts
06-Jan-20 11:46 32.629177 -116.790929 77 14969ft 265kts
06-Jan-20 11:47 32.688072 -116.749618 17 14978ft 259kts
06-Jan-20 11:48 32.757049 -116.724648 16 14983ft 260kts
06-Jan-20 11:49 32.826335 -116.699666 16 14986ft 260kts
06-Jan-20 11:50 32.895613 -116.674654 16 14985ft 260kts
06-Jan-20 11:51 32.964884 -116.649607 17 14985ft 260kts
06-Jan-20 11:52 33.034215 -116.624512 17 14987ft 260kts
06-Jan-20 11:53 33.103162 -116.599497 18 14999ft 261kts
06-Jan-20 11:54 33.168206 -116.561947 36 15021ft 261kts
06-Jan-20 11:55 33.226820 -116.510984 36 15042ft 261kts
06-Jan-20 11:56 33.285868 -116.459627 36 15065ft 261kts
06-Jan-20 11:57 33.344598 -116.408462 36 15091ft 261kts
06-Jan-20 11:58 33.403315 -116.357211 36 15094ft 261kts
06-Jan-20 11:59 33.462177 -116.305744 36 15097ft 262kts
06-Jan-20 12:00 33.520648 -116.254539 36 14479ft 258kts
06-Jan-20 12:01 33.578061 -116.204165 37 13954ft 245kts
06-Jan-20 12:02 33.636161 -116.176560 333 13791ft 252kts
06-Jan-20 12:03 33.649851 -116.253664 284 10980ft 242kts
06-Jan-20 12:04 33.667095 -116.329801 287 8038ft 234kts
06-Jan-20 12:05 33.701432 -116.389399 324 5021ft 221kts
06-Jan-20 12:06 33.749320 -116.431346 311 2431ft 196kts
06-Jan-20 12:07 33.780702 -116.463342 324 1368ft 100kts
06-Jan-20 12:08 33.803478 -116.484793 328 1062ft 95kts
06-Jan-20 12:09 33.823131 -116.501892 324 494ft 80kts
06-Jan-20 12:10 33.828659 -116.508017 264 480ft 0kts
06-Jan-20 12:11 33.827118 -116.507426 142 480ft 15kts
06-Jan-20 12:12 33.825571 -116.509700 353 480ft 12kts
06-Jan-20 12:13 33.825668 -116.509711 351 480ft 0kts
06-Jan-20 12:14 33.825668 -116.509711 351 480ft 0kts
06-Jan-20 12:15 33.825668 -116.509711 350 480ft 0kts
06-Jan-20 12:16 33.825668 -116.509711 350 480ft 0kts

Navigation Log

Ident Type
Flight plan parsing failed, navigation log unavailable